Airfield :
LOGIN :

Register | Disclaimer

   EN    FR    IT 

 










Legend :    VFR   Marginal VFR   IFR   Intensive IFR   Very Intensive IFR
Visi :
Ceiling :
>= 8 km
>= 3000ft
5 to 8 km
1000 to 3000 ft
1500m to 5 km
500 to 1000 ft
800 to 1500m
200 to 500 ft
< 800m
< 200 ft
Symbols :   Thunderstorms  Fog  Heavy snow  Heavy precipitations  Wind > 20 kt
SIGMETs :     Misc.  Thunderstorms  Icing  Turbulence  Mountain Waves  Volcanic Ashes






- Airport Elevation : 286 ft
- IATA code : FFD


EGVA - RAF Fairford

CURRENT METAR :
  • 192041Z AUTO 08006KT 8000 -RA BR OVC007 13/13 A2983 RMK AO2 SLP105 VISNO RWY09 $

EXPIRED METARs :
  • 192026Z AUTO 08007KT 4400 -RA BR OVC005 13/13 A2983 RMK AO2 VIS 4400V6000 SLP105 VISNO RWY09 $
  • 192001Z AUTO 08007KT 4400 -RA BR OVC005 13/13 A2983 RMK AO2 VIS 4400V6000 OVC V BKN SLP105 VISNO RWY09 $
  • 191956Z AUTO 08006KT 5000 -RA BR BKN005 OVC013 13/13 A2983 RMK AO2 RAB08E40DZB40E49RAB49 CIG 005V007 SLP105 P0000 T01340132 VISNO RWY09 $
  • 191948Z AUTO 07007KT 6000 -DZ BR BKN005 OVC013 14/13 A2983 RMK AO2 RAB08E40DZB40 CIG 005V007 SLP105 VISNO RWY09 $
  • 191938Z AUTO 07008KT 9999 -RA BKN007 OVC014 14/13 A2983 RMK AO2 RAB08 CIG 007V013 BKN V SCT SLP105 VISNO RWY09 $
  • 191923Z AUTO 07007KT 9999 -RA BKN010 OVC016 14/14 A2982 RMK AO2 RAB08 BKN V OVC SLP101 VISNO RWY09 $
  • 191918Z AUTO 07008KT 9999 -RA OVC009 14/14 A2982 RMK AO2 RAB08 OVC V BKN SLP101 VISNO RWY09 $
  • 191908Z AUTO 07006KT 9999 -RA BKN010 OVC015 14/13 A2983 RMK AO2 RAB08 SLP105 VISNO RWY09 $
  • 191901Z AUTO 08006KT 9999 BKN010 OVC017 14/13 A2982 RMK AO2 CIG 010V017 BKN V SCT SLP101 VISNO RWY09 $
  • 191856Z AUTO 06006KT 9999 SCT010 OVC017 14/13 A2983 RMK AO2 RAB20E30DZB30E33DZB33E33 SLP105 P0000 T01400132 VISNO RWY09 $
  • 191833Z AUTO 08008KT 9999 FEW011 OVC020 14/13 A2983 RMK AO2 RAB20E30DZB30E33DZB33 SLP105 VISNO RWY09 $
  • 191820Z AUTO 09007KT 9999 -RA OVC020 14/13 A2984 RMK AO2 RAB20 SLP108 VISNO RWY09 $
  • 191756Z AUTO 09007KT 9999 OVC017 14/13 A2986 RMK AO2 SLP115 T01430127 10152 20141 57016 VISNO RWY09 $

Expired Forecast.



MET'MAP, your aeronautical weather chart ! - Copyright ORBIFLY December 2007 - Disclaimer

ORBIFLY MET'MAP TEAM :

Programming & Development : Alexandra Zaïnal
Concept & original design : Baudouin d'Aumeries
Assistance for programming : Marc-Olivier Méhu
Technical & hardware support : Manuel Goepfert

Contact : metmap@orbifly.com




SOURCES & CREDITS :

   NOAA